createdAt,value
2019-04-14T00:04:42.152Z,15.17
2019-04-14T00:07:38.488Z,14.80
2019-04-14T00:10:59.424Z,14.60
2019-04-14T00:13:45.582Z,15.63
2019-04-14T00:16:18.427Z,15.17
2019-04-14T00:19:52.402Z,13.93
2019-04-14T00:22:18.654Z,15.93
2019-04-14T00:28:16.192Z,15.17
2019-04-14T00:30:53.453Z,15.83
2019-04-14T00:33:56.376Z,13.90
2019-04-14T00:37:12.164Z,14.73
2019-04-14T00:40:10.417Z,14.50
2019-04-14T00:43:33.599Z,17.23
2019-04-14T00:46:23.905Z,16.67
2019-04-14T00:49:17.948Z,15.73
2019-04-14T00:51:48.506Z,17.43
2019-04-14T00:55:10.133Z,15.63
2019-04-14T00:57:57.280Z,15.83
2019-04-14T01:00:34.223Z,18.00
2019-04-14T01:03:09.512Z,14.47
2019-04-14T01:05:45.908Z,18.33
2019-04-14T01:08:18.821Z,18.93
2019-04-14T01:10:59.505Z,18.20
2019-04-14T01:13:37.547Z,17.63
2019-04-14T01:16:23.082Z,18.80
2019-04-14T01:18:52.211Z,18.57
2019-04-14T01:21:48.145Z,17.67
2019-04-14T01:24:29.288Z,16.80
2019-04-14T01:27:25.550Z,18.10
2019-04-14T01:30:08.826Z,24.57
2019-04-14T01:32:47.976Z,16.80
2019-04-14T01:35:29.299Z,19.20
2019-04-14T01:38:01.626Z,17.80
2019-04-14T01:40:35.932Z,19.03
2019-04-14T01:43:08.095Z,20.03
2019-04-14T01:45:58.159Z,17.57
2019-04-14T01:48:21.483Z,20.57
2019-04-14T01:51:33.122Z,19.80
2019-04-14T01:54:40.953Z,19.20
2019-04-14T01:57:22.258Z,20.17
2019-04-14T02:00:19.088Z,20.80
2019-04-14T02:02:52.945Z,20.63
2019-04-14T02:05:34.312Z,22.63
2019-04-14T02:08:06.838Z,19.83
2019-04-14T02:10:39.218Z,25.87
2019-04-14T02:13:20.868Z,20.70
2019-04-14T02:15:54.969Z,24.80
2019-04-14T02:18:29.735Z,22.93
2019-04-14T02:21:43.465Z,21.40
2019-04-14T02:24:17.861Z,26.93
2019-04-14T02:26:50.293Z,22.20
2019-04-14T02:29:21.082Z,21.70
2019-04-14T02:32:25.306Z,23.23
2019-04-14T02:35:13.256Z,21.87
2019-04-14T02:37:55.961Z,22.27
2019-04-14T02:40:36.443Z,23.13
2019-04-14T02:43:30.348Z,22.27
2019-04-14T02:51:10.845Z,21.20
2019-04-14T02:59:05.592Z,22.10
2019-04-14T03:01:38.698Z,24.77
2019-04-14T03:04:09.122Z,23.97
2019-04-14T03:06:50.278Z,26.60
2019-04-14T03:09:32.421Z,25.90
2019-04-14T03:11:51.930Z,27.10
2019-04-14T03:14:30.910Z,26.67
2019-04-14T03:17:30.038Z,25.00
2019-04-14T03:20:28.027Z,27.17
2019-04-14T03:23:10.828Z,27.03
2019-04-14T03:25:59.302Z,26.13
2019-04-14T03:34:30.173Z,25.67
2019-04-14T03:39:17.847Z,26.97
2019-04-14T03:41:45.208Z,29.07
2019-04-14T03:44:48.926Z,30.33
2019-04-14T03:47:25.718Z,27.17
2019-04-14T03:50:06.006Z,24.77
2019-04-14T03:52:45.223Z,21.83
2019-04-14T03:55:01.210Z,25.70
2019-04-14T03:57:49.750Z,27.73
2019-04-14T04:00:35.483Z,25.87
2019-04-14T04:03:06.240Z,25.63
2019-04-14T04:05:41.316Z,29.87
2019-04-14T04:08:15.747Z,26.83
2019-04-14T04:10:53.252Z,24.67
2019-04-14T04:13:24.199Z,26.93
2019-04-14T04:15:58.390Z,25.00
2019-04-14T04:18:28.870Z,28.30
2019-04-14T04:21:16.332Z,27.97
2019-04-14T04:24:14.955Z,31.27
2019-04-14T04:26:58.512Z,23.37
2019-04-14T04:29:48.418Z,26.63
2019-04-14T04:32:36.955Z,27.13
2019-04-14T04:35:30.570Z,31.33
2019-04-14T04:38:39.872Z,28.90
2019-04-14T04:41:10.181Z,28.77
2019-04-14T04:43:40.881Z,26.17
2019-04-14T04:46:35.156Z,27.13
2019-04-14T04:49:21.739Z,28.50
2019-04-14T04:51:48.656Z,25.23
2019-04-14T04:54:25.704Z,28.40
2019-04-14T04:56:58.043Z,28.90
2019-04-14T04:59:28.374Z,25.77
2019-04-14T05:02:02.637Z,28.63
2019-04-14T05:04:35.630Z,30.40
2019-04-14T05:07:05.844Z,30.20
2019-04-14T05:10:00.200Z,26.93
2019-04-14T05:12:43.641Z,29.60
2019-04-14T05:15:37.997Z,25.87
2019-04-14T05:18:22.879Z,24.30
2019-04-14T05:20:53.212Z,35.07
2019-04-14T05:23:25.665Z,26.90
2019-04-14T05:25:56.122Z,27.17
2019-04-14T05:28:28.946Z,26.37
2019-04-14T05:31:01.109Z,27.33
2019-04-14T05:33:31.596Z,25.77
2019-04-14T05:36:15.036Z,30.80
2019-04-14T05:39:08.987Z,26.83
2019-04-14T05:42:02.594Z,29.00
2019-04-14T05:44:45.644Z,26.50
2019-04-14T05:50:37.952Z,31.43
2019-04-14T05:53:11.007Z,27.93
2019-04-14T05:55:54.595Z,26.70
2019-04-14T05:58:25.865Z,28.27
2019-04-14T06:01:00.315Z,26.07
2019-04-14T06:03:34.187Z,27.63
2019-04-14T06:06:12.130Z,28.30
2019-04-14T06:09:32.926Z,28.50
2019-04-14T06:12:05.911Z,28.43
2019-04-14T06:14:46.682Z,26.60
2019-04-14T06:17:19.889Z,30.07
2019-04-14T06:19:58.416Z,29.07
2019-04-14T06:22:40.904Z,27.33
2019-04-14T06:25:25.595Z,24.13
2019-04-14T06:31:04.026Z,28.33
2019-04-14T06:38:13.482Z,27.53
2019-04-14T06:44:05.129Z,32.87
2019-04-14T06:46:38.790Z,23.83
2019-04-14T06:49:09.395Z,28.37
2019-04-14T06:52:02.989Z,24.33
2019-04-14T06:54:38.925Z,25.17
2019-04-14T06:57:10.118Z,24.73
2019-04-14T06:59:43.562Z,23.17
2019-04-14T07:02:20.237Z,21.60
2019-04-14T07:04:50.049Z,24.40
2019-04-14T07:11:28.308Z,23.10
2019-04-14T07:14:43.955Z,23.80
2019-04-14T07:17:27.782Z,25.13
2019-04-14T07:20:02.706Z,26.50
2019-04-14T07:22:33.393Z,25.00
2019-04-14T07:25:13.226Z,24.70
2019-04-14T07:27:43.446Z,26.63
2019-04-14T07:30:31.597Z,25.83
2019-04-14T07:33:32.636Z,28.23
2019-04-14T07:47:54.332Z,26.23
2019-04-14T07:50:56.612Z,26.10
2019-04-14T07:54:16.912Z,24.37
2019-04-14T07:57:17.703Z,25.97
2019-04-14T08:03:03.096Z,25.50
2019-04-14T08:20:26.427Z,26.43
2019-04-14T08:32:26.479Z,29.70
2019-04-14T08:35:20.382Z,22.87
2019-04-14T08:38:11.043Z,24.47
2019-04-14T08:41:01.546Z,23.23
2019-04-14T08:43:45.812Z,23.30
2019-04-14T08:46:38.647Z,22.40
2019-04-14T08:49:41.972Z,22.47
2019-04-14T08:52:38.259Z,27.03
2019-04-14T08:55:37.974Z,27.63
2019-04-14T08:58:29.556Z,24.23
2019-04-14T09:01:33.181Z,24.83
2019-04-14T09:04:32.563Z,26.07
2019-04-14T09:07:10.404Z,24.77
2019-04-14T09:09:43.019Z,25.57
2019-04-14T09:12:25.527Z,24.80
2019-04-14T09:14:57.722Z,25.00
2019-04-14T09:17:30.644Z,22.23
2019-04-14T09:20:03.952Z,22.53
2019-04-14T09:22:34.163Z,22.43
2019-04-14T09:25:08.830Z,23.63
2019-04-14T09:27:38.431Z,21.53
2019-04-14T09:30:08.954Z,21.57
2019-04-14T09:32:39.768Z,23.50
2019-04-14T09:35:15.740Z,22.47
2019-04-14T09:37:48.699Z,20.07
2019-04-14T09:40:19.080Z,21.57
2019-04-14T09:42:48.522Z,21.20
2019-04-14T09:45:18.408Z,20.57
2019-04-14T09:47:49.508Z,19.37
2019-04-14T09:50:24.337Z,18.60
2019-04-14T09:53:01.687Z,19.20
2019-04-14T09:55:34.343Z,18.57
2019-04-14T09:58:07.187Z,18.43
2019-04-14T10:00:38.339Z,19.57
2019-04-14T10:03:08.549Z,18.83
2019-04-14T10:05:39.211Z,19.87
2019-04-14T10:08:14.489Z,21.30
2019-04-14T10:10:50.062Z,18.90
2019-04-14T10:13:46.370Z,18.43
2019-04-14T10:16:16.449Z,21.00
2019-04-14T10:18:57.934Z,18.90
2019-04-14T10:21:30.864Z,24.30
2019-04-14T10:24:00.882Z,22.93
2019-04-14T10:26:30.441Z,23.00
2019-04-14T10:29:09.681Z,19.00
2019-04-14T10:31:39.181Z,21.50
2019-04-14T10:34:10.048Z,22.87
2019-04-14T10:36:39.896Z,19.17
2019-04-14T10:39:12.763Z,20.17
2019-04-14T10:41:43.181Z,19.30
2019-04-14T10:44:20.613Z,18.53
2019-04-14T10:46:50.213Z,21.77
2019-04-14T10:49:20.324Z,21.07
2019-04-14T10:51:50.285Z,20.23
2019-04-14T10:54:21.390Z,23.07
2019-04-14T10:57:01.227Z,22.33
2019-04-14T10:59:40.107Z,22.97
2019-04-14T11:02:16.198Z,21.03
2019-04-14T11:07:32.292Z,18.10
2019-04-14T11:10:02.861Z,20.30
2019-04-14T11:12:40.344Z,23.60
2019-04-14T11:15:10.994Z,18.60
2019-04-14T11:18:08.100Z,18.20
2019-04-14T11:20:38.314Z,19.67
2019-04-14T11:23:07.740Z,19.60
2019-04-14T11:25:39.311Z,19.37
2019-04-14T11:28:11.540Z,20.43
2019-04-14T11:30:41.207Z,19.73
2019-04-14T11:33:35.870Z,20.13
2019-04-14T11:36:24.556Z,20.00
2019-04-14T11:39:17.374Z,18.93
2019-04-14T11:41:47.634Z,18.83
2019-04-14T11:44:29.575Z,18.87
2019-04-14T11:47:16.140Z,18.57
2019-04-14T11:49:44.522Z,21.93
2019-04-14T11:52:14.289Z,18.00
2019-04-14T11:54:43.897Z,17.23
2019-04-14T11:57:14.352Z,17.07
2019-04-14T11:59:57.035Z,20.90
2019-04-14T12:02:42.921Z,18.63
2019-04-14T12:05:26.129Z,23.53
2019-04-14T12:08:10.751Z,21.23
2019-04-14T12:10:42.240Z,20.90
2019-04-14T12:13:11.661Z,21.17
2019-04-14T12:15:56.500Z,21.27
2019-04-14T12:18:26.512Z,19.03
2019-04-14T12:20:56.940Z,20.47
2019-04-14T12:23:26.607Z,16.73
2019-04-14T12:26:05.309Z,18.13
2019-04-14T12:28:28.421Z,22.87
2019-04-14T12:30:59.679Z,18.27
2019-04-14T12:33:32.981Z,17.73
2019-04-14T12:36:03.897Z,18.67
2019-04-14T12:38:35.169Z,19.13
2019-04-14T12:41:06.526Z,18.13
2019-04-14T12:44:07.785Z,21.90
2019-04-14T12:46:58.995Z,18.80
2019-04-14T12:49:35.776Z,17.57
2019-04-14T12:52:22.134Z,16.00
2019-04-14T12:54:59.704Z,18.83
2019-04-14T12:57:35.878Z,18.47
2019-04-14T13:00:09.569Z,22.33
2019-04-14T13:02:42.326Z,16.77
2019-04-14T13:05:12.038Z,16.57
2019-04-14T13:07:41.798Z,17.10
2019-04-14T13:10:11.977Z,20.07
2019-04-14T13:12:41.527Z,16.30
2019-04-14T13:15:11.439Z,23.80
2019-04-14T13:17:40.873Z,18.43
2019-04-14T13:20:10.640Z,17.03
2019-04-14T13:22:41.074Z,16.63
2019-04-14T13:25:11.290Z,16.60
2019-04-14T13:27:41.203Z,15.57
2019-04-14T13:30:13.660Z,16.10
2019-04-14T13:32:43.134Z,15.83
2019-04-14T13:35:12.592Z,15.57
2019-04-14T13:37:42.119Z,16.70
2019-04-14T13:40:12.651Z,15.07
2019-04-14T13:42:42.090Z,13.57
2019-04-14T13:45:11.470Z,15.57
2019-04-14T13:47:41.643Z,15.30
2019-04-14T13:50:11.952Z,15.73
2019-04-14T13:52:47.187Z,16.87
2019-04-14T13:55:16.725Z,17.07
2019-04-14T13:57:46.947Z,16.60
2019-04-14T14:00:18.175Z,20.00
2019-04-14T14:02:50.772Z,14.70
2019-04-14T14:05:22.821Z,16.63
2019-04-14T14:07:53.113Z,15.57
2019-04-14T14:10:23.257Z,12.87
2019-04-14T14:13:26.999Z,17.07
2019-04-14T14:16:25.853Z,16.93
2019-04-14T14:19:17.727Z,14.07
2019-04-14T14:22:03.312Z,15.60
2019-04-14T14:24:55.897Z,15.63
2019-04-14T14:27:25.906Z,15.17
2019-04-14T14:29:57.696Z,14.40
2019-04-14T14:32:40.545Z,17.00
2019-04-14T14:35:12.672Z,15.50
2019-04-14T14:37:42.738Z,12.73
2019-04-14T14:40:13.108Z,14.77
2019-04-14T14:42:42.554Z,18.40
2019-04-14T14:45:30.296Z,14.47
2019-04-14T14:48:48.158Z,14.40
2019-04-14T14:51:46.012Z,15.43
2019-04-14T14:54:16.025Z,13.63
2019-04-14T14:56:50.334Z,14.90
2019-04-14T14:59:53.592Z,15.80
2019-04-14T15:02:50.632Z,15.33
2019-04-14T15:05:50.318Z,14.37
2019-04-14T15:08:15.281Z,13.37
2019-04-14T15:10:48.422Z,13.27
2019-04-14T15:13:21.943Z,13.07
2019-04-14T15:15:54.526Z,14.37
2019-04-14T15:18:28.129Z,15.73
2019-04-14T15:21:00.031Z,13.60
2019-04-14T15:23:29.367Z,11.90
2019-04-14T15:26:01.080Z,13.47
2019-04-14T15:28:34.929Z,12.87
2019-04-14T15:31:07.551Z,14.80
2019-04-14T15:33:38.881Z,12.23
2019-04-14T15:36:09.122Z,12.47
2019-04-14T15:38:46.527Z,14.53
2019-04-14T15:41:16.132Z,12.93
2019-04-14T15:43:45.571Z,13.47
2019-04-14T15:46:15.754Z,13.60
2019-04-14T15:48:45.353Z,13.13
2019-04-14T15:51:16.554Z,12.70
2019-04-14T15:53:54.426Z,13.70
2019-04-14T15:56:37.943Z,14.53
2019-04-14T15:59:49.271Z,14.90
2019-04-14T16:02:32.903Z,13.97
2019-04-14T16:05:33.611Z,12.23
2019-04-14T16:08:25.691Z,12.10
2019-04-14T16:11:23.364Z,10.93
2019-04-14T16:14:34.742Z,11.77
2019-04-14T16:17:32.899Z,15.23
2019-04-14T16:20:24.120Z,11.43
2019-04-14T16:22:53.742Z,12.60
2019-04-14T16:25:38.052Z,10.57
2019-04-14T16:28:20.374Z,10.73
2019-04-14T16:31:27.181Z,12.70
2019-04-14T16:34:56.426Z,11.27
2019-04-14T16:37:30.303Z,9.90
2019-04-14T16:40:08.712Z,13.03
2019-04-14T16:42:58.177Z,17.37
2019-04-14T16:45:40.817Z,14.67
2019-04-14T16:48:11.210Z,11.73
2019-04-14T16:50:42.130Z,14.00
2019-04-14T16:53:27.927Z,14.90
2019-04-14T16:56:18.033Z,10.93
2019-04-14T16:58:55.428Z,11.97
2019-04-14T17:01:30.660Z,13.07
2019-04-14T17:04:12.396Z,12.50
2019-04-14T17:06:40.450Z,13.00
2019-04-14T17:09:10.342Z,12.70
2019-04-14T17:11:42.887Z,16.60
2019-04-14T17:14:24.315Z,12.67
2019-04-14T17:17:07.661Z,11.80
2019-04-14T17:19:58.452Z,12.90
2019-04-14T17:22:46.110Z,11.50
2019-04-14T17:25:25.969Z,10.93
2019-04-14T17:28:15.164Z,13.03
2019-04-14T17:30:54.529Z,11.83
2019-04-14T17:33:48.050Z,11.47
2019-04-14T17:36:43.167Z,13.57
2019-04-14T17:39:32.101Z,14.30
2019-04-14T17:42:29.392Z,12.43
2019-04-14T17:45:27.177Z,14.10
2019-04-14T17:48:08.239Z,12.83
2019-04-14T17:51:03.502Z,12.50
2019-04-14T17:53:41.409Z,13.40
2019-04-14T17:56:47.118Z,13.43
2019-04-14T17:59:45.501Z,14.83
2019-04-14T18:02:28.729Z,12.13
2019-04-14T18:05:31.443Z,13.07
2019-04-14T18:08:23.385Z,13.37
2019-04-14T18:11:01.513Z,15.07
2019-04-14T18:14:03.924Z,13.00
2019-04-14T18:16:57.145Z,13.70
2019-04-14T18:19:35.844Z,13.03
2019-04-14T18:22:06.118Z,13.37
2019-04-14T18:24:59.958Z,14.50
2019-04-14T18:27:38.609Z,13.10
2019-04-14T18:30:33.546Z,12.87
2019-04-14T18:33:32.154Z,13.20
2019-04-14T18:36:27.370Z,13.13
2019-04-14T18:39:20.407Z,14.53
2019-04-14T18:42:12.352Z,12.47
2019-04-14T18:45:18.466Z,15.67
2019-04-14T18:48:00.184Z,15.77
2019-04-14T18:51:00.049Z,13.23
2019-04-14T18:53:53.399Z,13.67
2019-04-14T18:56:54.962Z,14.23
2019-04-14T18:59:58.425Z,15.73
2019-04-14T19:02:35.633Z,18.07
2019-04-14T19:05:08.760Z,14.27
2019-04-14T19:07:54.926Z,12.53
2019-04-14T19:10:27.592Z,15.90
2019-04-14T19:13:09.338Z,14.13
2019-04-14T19:15:52.864Z,15.47
2019-04-14T19:18:38.380Z,18.40
2019-04-14T19:21:17.402Z,27.50
2019-04-14T19:23:51.645Z,24.47
2019-04-14T19:26:29.958Z,29.63
2019-04-14T19:29:02.242Z,26.53
2019-04-14T19:31:34.249Z,25.27
2019-04-14T19:34:26.461Z,26.77
2019-04-14T19:36:56.735Z,24.83
2019-04-14T19:40:16.572Z,24.73
2019-04-14T19:42:48.205Z,22.63
2019-04-14T19:45:32.065Z,22.73
2019-04-14T19:48:09.688Z,17.77
2019-04-14T19:50:59.546Z,17.93
2019-04-14T19:53:37.016Z,18.43
2019-04-14T19:56:25.656Z,13.93
2019-04-14T20:02:12.204Z,16.47
2019-04-14T20:04:46.701Z,17.60
2019-04-14T20:10:29.880Z,16.53
2019-04-14T20:13:28.300Z,19.10
2019-04-14T20:16:10.449Z,18.40
2019-04-14T20:19:18.027Z,17.40
2019-04-14T20:22:12.676Z,16.23
2019-04-14T20:25:32.820Z,21.17
2019-04-14T20:28:12.205Z,17.00
2019-04-14T20:30:48.749Z,19.10
2019-04-14T20:33:25.995Z,16.13
2019-04-14T20:35:57.332Z,18.73
2019-04-14T20:38:29.352Z,15.83
2019-04-14T20:41:02.634Z,15.87
2019-04-14T20:43:32.627Z,16.50
2019-04-14T20:46:02.308Z,16.00
2019-04-14T20:48:32.239Z,16.30
2019-04-14T20:51:02.429Z,16.37
2019-04-14T20:53:32.016Z,15.73
2019-04-14T20:56:01.574Z,17.03
2019-04-14T20:58:35.554Z,15.77
2019-04-14T21:01:13.865Z,14.77
2019-04-14T21:04:19.535Z,15.17
2019-04-14T21:07:16.442Z,16.47
2019-04-14T21:10:00.627Z,14.83
2019-04-14T21:13:03.167Z,14.27
2019-04-14T21:15:57.490Z,16.17
2019-04-14T21:19:01.330Z,21.97
2019-04-14T21:22:00.647Z,17.53
2019-04-14T21:25:05.844Z,18.27
2019-04-14T21:27:53.221Z,16.30
2019-04-14T21:30:38.309Z,19.57
2019-04-14T21:33:20.412Z,17.10
2019-04-14T21:36:15.871Z,19.07
2019-04-14T21:39:00.026Z,21.57
2019-04-14T21:41:33.638Z,17.33
2019-04-14T21:44:07.087Z,18.90
2019-04-14T21:46:47.183Z,16.30
2019-04-14T21:49:31.605Z,16.23
2019-04-14T21:52:19.327Z,19.50
2019-04-14T21:54:51.770Z,17.07
2019-04-14T21:57:44.869Z,15.73
2019-04-14T22:00:33.637Z,19.20
2019-04-14T22:03:23.252Z,17.97
2019-04-14T22:06:12.290Z,22.23
2019-04-14T22:08:52.559Z,17.57
2019-04-14T22:11:24.349Z,17.83
2019-04-14T22:13:58.898Z,17.70
2019-04-14T22:16:34.328Z,18.00
2019-04-14T22:19:06.600Z,19.75
2019-04-14T22:21:36.248Z,17.10
2019-04-14T22:24:19.336Z,17.83
2019-04-14T22:26:49.134Z,19.10
2019-04-14T22:29:21.907Z,19.23
2019-04-14T22:31:54.610Z,17.73
2019-04-14T22:34:24.657Z,18.33
2019-04-14T22:36:54.343Z,20.20
2019-04-14T22:39:29.907Z,18.50
2019-04-14T22:41:59.507Z,18.50
2019-04-14T22:44:29.394Z,19.17
2019-04-14T22:46:59.150Z,18.73
2019-04-14T22:49:29.524Z,19.00
2019-04-14T22:52:01.893Z,17.60
2019-04-14T22:54:31.990Z,21.83
2019-04-14T22:57:28.370Z,20.80
2019-04-14T22:59:58.161Z,17.53
2019-04-14T23:03:01.042Z,18.93
2019-04-14T23:05:50.084Z,17.90
2019-04-14T23:08:45.495Z,17.90
2019-04-14T23:11:34.937Z,21.50
2019-04-14T23:14:30.089Z,20.27
2019-04-14T23:17:24.544Z,17.47
2019-04-14T23:20:09.548Z,17.03
2019-04-14T23:22:53.960Z,20.57
2019-04-14T23:25:31.185Z,21.20
2019-04-14T23:28:03.961Z,19.37
2019-04-14T23:30:37.280Z,17.80
2019-04-14T23:33:13.501Z,24.50
2019-04-14T23:35:44.514Z,19.63
2019-04-14T23:38:30.508Z,24.30
2019-04-14T23:41:06.057Z,20.37
2019-04-14T23:43:44.361Z,21.57
2019-04-14T23:49:11.221Z,19.53
2019-04-14T23:51:47.456Z,18.57
2019-04-14T23:54:17.606Z,19.07
2019-04-14T23:57:05.469Z,21.03
2019-04-14T23:59:32.298Z,14.63
